Latest Weather Observations for Jabiru

IDD60801

Issued at 9:51 am CST Thursday 21 November 2019 (issued every 10 minutes, with the page automatically refreshed every 10 minutes)

About weather observations | Map of weather stations | Latest weather observations for NT | Other Formats
Station Details ID: 014198 Name: JABIRU AIRPORT Lat: -12.66 Lon: 132.89 Height: 26.5 m
Data from the previous 72 hours. | See also: Recent months at Jabiru
Date/Time
CST
Temp
°C
App
Temp
°C
Dew
Point
°C
Rel
Hum
%
Delta-T
°C
Wind Press
QNH
hPa
Press
MSL
hPa
Rain since
9am
mm
Dir  Spd
km/h
Gust
km/h
Spd
kts
Gust
kts
21/09:30am 31.0 34.9 23.6 64 5.1 WNW 9 13 5 7 1011.6 1011.3 0.0
21/09:00am 30.4 34.6 24.1 69 4.4 N 9 13 5 7 1011.6 1011.3 0.0
21/08:30am 29.8 34.3 23.7 70 4.2 ENE 6 9 3 5 1011.5 1011.2 0.0
21/08:00am 29.2 33.7 23.6 72 3.9 E 6 9 3 5 1011.5 1011.2 0.0
21/07:30am 27.8 32.2 23.4 77 3.0 ESE 6 7 3 4 1011.2 1010.9 0.0
21/07:00am 26.5 30.8 23.6 84 2.0 E 7 9 4 5 1011.1 1010.8 0.0
21/06:30am 25.5 30.8 23.7 90 1.2 ESE 2 6 1 3 1010.8 1010.5 0.0
21/06:00am 25.1 30.5 23.2 89 1.3 CALM 0 0 0 0 1010.4 1010.1 0.0
21/05:30am 25.3 29.7 23.5 90 1.2 E 6 6 3 3 1009.9 1009.6 0.0
21/05:00am 25.3 29.7 23.5 90 1.2 ESE 6 7 3 4 1009.8 1009.5 0.0
21/04:30am 25.4 29.7 23.3 88 1.4 E 6 7 3 4 1009.5 1009.2 0.0
21/04:00am 25.5 31.0 23.4 88 1.4 CALM 0 0 0 0 1009.3 1009.0 0.0
21/03:30am 25.8 31.5 23.7 88 1.4 CALM 0 0 0 0 1009.1 1008.8 0.0
21/03:00am 26.2 31.9 23.7 86 1.7 CALM 0 0 0 0 1009.0 1008.7 0.0
21/02:30am 26.5 32.0 23.4 83 2.1 CALM 0 0 0 0 1009.2 1008.9 0.0
21/02:00am 26.6 31.8 22.9 80 2.5 CALM 0 0 0 0 1009.5 1009.2 0.0
21/01:30am 26.5 31.5 23.2 82 2.3 NE 2 7 1 4 1009.6 1009.3 0.0
21/01:00am 27.0 31.1 23.0 79 2.7 NNE 6 7 3 4 1010.1 1009.8 0.0
21/12:30am 27.1 30.9 22.7 77 3.0 NNW 7 9 4 5 1010.5 1010.2 0.0
21/12:00am 27.4 31.4 22.8 76 3.1 NW 6 9 3 5 1010.8 1010.5 0.0
 
Date/Time
CST
Temp
°C
App
Temp
°C
Dew
Point
°C
Rel
Hum
%
Delta-T
°C
Wind Press
QNH
hPa
Press
MSL
hPa
Rain since
9am
mm
Dir  Spd
km/h
Gust
km/h
Spd
kts
Gust
kts
20/11:30pm 27.7 31.2 22.9 75 3.3 WNW 9 11 5 6 1010.7 1010.4 0.0
20/11:00pm 27.4 31.2 23.4 79 2.7 W 9 11 5 6 1010.8 1010.5 0.0
20/10:30pm 27.1 32.2 24.0 83 2.1 SW 4 9 2 5 1010.4 1010.1 0.0
20/10:00pm 27.8 33.4 23.6 78 2.9 CALM 0 6 0 3 1010.0 1009.7 0.0
20/09:30pm 28.0 32.7 23.4 76 3.2 N 4 7 2 4 1009.5 1009.2 0.0
20/09:00pm 27.8 31.6 23.4 77 3.0 NE 9 11 5 6 1009.1 1008.8 0.0
20/08:30pm 27.9 31.3 23.3 76 3.2 NNW 11 17 6 9 1008.8 1008.5 0.0
20/08:00pm 27.9 30.1 23.3 76 3.1 N 17 26 9 14 1008.4 1008.1 0.0
20/07:30pm 29.0 30.6 22.2 66 4.6 N 17 26 9 14 1008.2 1007.9 0.0
20/07:00pm 30.0 29.7 21.1 59 5.9 NNE 24 39 13 21 1007.4 1007.2 0.0
20/06:30pm 31.4 30.7 21.0 54 7.0 NNE 26 41 14 22 1006.9 1006.7 0.0
20/06:25pm 32.1 31.5 20.4 50 7.8 N 24 41 13 22 1006.9 1006.7 0.0
20/06:00pm 34.0 34.9 19.3 42 9.7 N 13 19 7 10 1006.2 1006.0 0.0
20/05:34pm 33.8 35.2 18.7 40 9.9 NE 9 39 5 21 1006.3 1006.1 0.0
20/05:30pm 37.0 38.8 16.5 29 13.2 N 2 9 1 5 1006.2 1006.0 0.0
20/05:00pm 37.4 38.0 16.9 30 13.2 NW 9 17 5 9 1005.5 1005.3 0.0
20/04:30pm 37.5 38.4 17.5 30 13.0 N 9 19 5 10 1005.4 1005.2 0.0
20/04:00pm 38.0 38.4 16.3 27 13.9 NE 9 20 5 11 1005.3 1005.1 0.0
20/03:30pm 37.4 38.2 17.4 30 13.0 NNE 9 15 5 8 1005.7 1005.5 0.0
20/03:00pm 37.4 38.5 17.9 31 12.8 N 9 17 5 9 1006.1 1005.9 0.0
20/02:30pm 36.6 38.2 18.2 34 12.1 N 7 15 4 8 1006.6 1006.4 0.0
20/02:00pm 36.2 37.6 18.7 35 11.5 NNW 9 17 5 9 1007.1 1006.9 0.0
20/01:30pm 35.8 37.6 18.8 36 11.2 N 7 15 4 8 1007.7 1007.5 0.0
20/01:00pm 35.0 37.3 19.4 40 10.3 ESE 6 13 3 7 1008.4 1008.1 0.0
20/12:30pm 34.2 35.2 19.4 41 9.8 NW 13 19 7 10 1009.2 1008.9 0.0
20/12:00pm 33.6 35.5 19.7 44 9.2 NE 9 15 5 8 1009.6 1009.3 0.0
20/11:30am 33.3 35.4 20.1 45 8.8 NNE 9 17 5 9 1010.0 1009.7 0.0
20/11:00am 32.9 36.2 20.8 49 8.1 NE 4 13 2 7 1010.5 1010.2 0.0
20/10:30am 32.2 35.9 21.4 53 7.3 ENE 4 9 2 5 1011.0 1010.7 0.0
20/10:00am 31.8 35.3 22.8 59 6.2 W 9 15 5 8 1011.0 1010.7 0.0
20/09:30am 30.5 33.9 23.4 66 4.9 WNW 11 17 6 9 1011.0 1010.7 0.0
20/09:00am 30.1 34.2 23.3 67 4.7 NNW 7 13 4 7 1011.0 1010.7 0.0
20/08:30am 29.7 33.9 23.2 68 4.5 NNE 6 11 3 6 1011.0 1010.7 0.0
20/08:00am 28.9 34.1 22.9 70 4.1 CALM 0 6 0 3 1010.5 1010.2 0.0
20/07:30am 27.8 33.1 23.0 75 3.3 CALM 0 0 0 0 1010.4 1010.1 0.0
20/07:00am 26.7 32.5 24.0 85 1.9 CALM 0 0 0 0 1010.0 1009.7 0.0
20/06:30am 25.2 30.8 23.6 91 1.1 CALM 0 0 0 0 1009.7 1009.4 0.0
20/06:00am 25.0 30.3 23.1 89 1.3 CALM 0 0 0 0 1009.3 1009.0 0.0
20/05:30am 24.9 30.2 23.0 89 1.3 CALM 0 0 0 0 1009.3 1009.0 0.0
20/05:00am 24.8 28.5 22.5 87 1.5 ESE 7 9 4 5 1009.1 1008.8 0.0
20/04:30am 25.1 28.8 22.6 86 1.7 E 7 7 4 4 1008.9 1008.6 0.0
20/04:00am 25.3 29.3 22.8 86 1.7 ENE 6 7 3 4 1008.9 1008.6 0.0
20/03:30am 25.4 30.6 22.9 86 1.7 CALM 0 0 0 0 1009.0 1008.7 0.0
20/03:00am 25.8 30.9 22.7 83 2.1 CALM 0 0 0 0 1009.0 1008.7 0.0
20/02:30am 25.8 30.0 22.5 82 2.2 SE 4 6 2 3 1009.4 1009.1 0.0
20/02:00am 25.8 30.7 22.3 81 2.4 CALM 0 2 0 1 1009.4 1009.1 0.0
20/01:30am 26.8 30.3 22.2 76 3.1 NW 7 9 4 5 1009.7 1009.4 0.0
20/01:00am 27.0 30.4 22.0 74 3.4 NNE 7 11 4 6 1010.0 1009.7 0.0
20/12:30am 27.1 29.5 21.6 72 3.7 WNW 11 13 6 7 1010.4 1010.1 0.0
20/12:00am 27.2 30.3 21.5 71 3.8 NW 7 11 4 6 1010.4 1010.1 0.0
 
Date/Time
CST
Temp
°C
App
Temp
°C
Dew
Point
°C
Rel
Hum
%
Delta-T
°C
Wind Press
QNH
hPa
Press
MSL
hPa
Rain since
9am
mm
Dir  Spd
km/h
Gust
km/h
Spd
kts
Gust
kts
19/11:30pm 27.1 30.3 21.6 72 3.7 NNW 7 9 4 5 1010.5 1010.2 0.0
19/11:00pm 27.4 30.6 21.7 71 3.8 WNW 7 9 4 5 1010.6 1010.3 0.0
19/10:30pm 27.9 31.1 21.7 69 4.2 WNW 7 7 4 4 1010.6 1010.3 0.0
19/10:00pm 28.1 31.0 21.1 65 4.7 NNW 7 11 4 6 1010.4 1010.1 0.0
19/09:30pm 28.2 31.5 20.7 63 5.0 NNE 4 7 2 4 1009.9 1009.6 0.0
19/09:00pm 28.5 30.7 20.5 62 5.3 NNW 9 11 5 6 1009.5 1009.2 0.0
19/08:30pm 29.0 31.0 19.9 58 6.0 N 9 17 5 9 1009.2 1008.9 0.0
19/08:00pm 29.3 31.0 20.2 58 6.0 N 11 17 6 9 1009.0 1008.7 0.0
19/07:30pm 29.9 31.0 19.6 54 6.8 N 13 17 7 9 1008.5 1008.2 0.0
19/07:00pm 30.4 30.6 19.4 51 7.2 N 17 22 9 12 1008.1 1007.8 0.0
19/06:30pm 30.9 31.8 20.8 55 6.8 NNE 17 22 9 12 1007.7 1007.5 0.0
19/06:00pm 31.9 31.9 20.2 50 7.8 N 20 28 11 15 1007.0 1006.8 0.0
19/05:30pm 33.1 34.9 20.3 47 8.5 NW 11 26 6 14 1006.8 1006.6 0.0
19/05:00pm 33.0 35.8 20.9 49 8.1 SW 7 9 4 5 1006.1 1005.9 0.0
19/04:30pm 32.7 35.1 20.9 49 7.9 SW 9 13 5 7 1005.9 1005.7 0.0
19/04:00pm 32.6 33.0 19.8 46 8.5 SW 17 24 9 13 1006.2 1006.0 0.0
19/03:30pm 36.3 37.1 17.4 32 12.3 NE 9 15 5 8 1006.3 1006.1 0.0
19/03:00pm 37.2 38.2 17.7 31 12.7 NNW 9 15 5 8 1006.5 1006.3 0.0
19/02:30pm 37.1 38.5 18.6 33 12.2 N 9 17 5 9 1006.7 1006.5 0.0
19/02:00pm 35.9 37.4 17.6 34 11.9 NE 6 13 3 7 1007.2 1007.0 0.0
19/01:30pm 35.9 37.1 19.8 39 10.8 NNE 13 20 7 11 1007.8 1007.6 0.0
19/01:00pm 34.7 36.1 20.3 43 9.6 NE 13 19 7 10 1008.5 1008.2 0.0
19/12:30pm 34.2 35.0 17.4 36 10.8 NE 9 15 5 8 1009.2 1008.9 0.0
19/12:00pm 33.7 35.8 19.0 42 9.7 ENE 6 13 3 7 1009.7 1009.4 0.0
19/11:30am 33.3 36.6 21.8 51 7.8 NW 7 11 4 6 1010.2 1009.9 0.0
19/11:00am 32.1 34.6 21.0 52 7.4 NNW 9 13 5 7 1010.7 1010.4 0.0
19/10:30am 31.7 34.9 20.6 51 7.4 WNW 4 7 2 4 1011.0 1010.7 0.0
19/10:00am 31.2 35.1 22.5 60 5.9 WSW 6 9 3 5 1011.4 1011.1 0.0
19/09:30am 30.2 34.3 22.9 65 5.0 WSW 6 9 3 5 1011.5 1011.2 0.0
19/09:00am 29.2 33.9 22.7 68 4.4 ESE 2 9 1 5 1011.7 1011.4 34.4
19/08:30am 28.5 33.2 23.9 76 3.2 SE 6 9 3 5 1011.5 1011.2 34.2
19/08:00am 27.1 32.1 23.8 82 2.3 SSW 4 7 2 4 1011.1 1010.8 34.2
19/07:30am 26.0 30.4 23.5 86 1.7 SSW 6 7 3 4 1010.7 1010.4 34.2
19/07:00am 25.3 30.9 23.5 90 1.2 CALM 0 0 0 0 1010.3 1010.0 34.2
19/06:30am 24.9 29.9 23.9 94 0.7 SW 4 7 2 4 1010.3 1010.0 34.2
19/06:00am 24.9 30.7 23.9 94 0.7 CALM 0 0 0 0 1010.0 1009.7 34.2
19/05:30am 25.2 30.9 23.8 92 1.0 CALM 0 0 0 0 1009.7 1009.4 34.2
19/05:00am 25.4 31.1 23.8 91 1.1 CALM 0 0 0 0 1009.4 1009.1 34.2
19/04:30am 25.8 31.0 23.5 87 1.6 WNW 2 6 1 3 1009.6 1009.3 34.2
19/04:00am 25.9 30.4 23.6 87 1.6 W 6 7 3 4 1009.5 1009.2 34.2
19/03:30am 26.2 30.7 23.7 86 1.7 WNW 6 7 3 4 1009.5 1009.2 34.2
19/03:00am 26.2 30.7 23.7 86 1.7 W 6 7 3 4 1009.6 1009.3 34.2
19/02:30am 26.0 30.4 23.5 86 1.7 WSW 6 9 3 5 1009.7 1009.4 34.2
19/02:00am 26.0 30.7 23.3 85 1.8 SW 4 7 2 4 1009.9 1009.6 34.2
19/01:30am 26.2 30.5 23.3 84 2.0 SSW 6 9 3 5 1009.8 1009.5 34.2
19/01:00am 26.0 29.6 23.1 84 2.0 ENE 9 13 5 7 1009.9 1009.6 34.2
19/12:30am 25.6 28.8 23.1 86 1.7 NNE 11 15 6 8 1009.6 1009.3 34.2
19/12:00am 26.7 29.8 22.8 79 2.6 NW 11 17 6 9 1010.5 1010.2 34.2
 
Date/Time
CST
Temp
°C
App
Temp
°C
Dew
Point
°C
Rel
Hum
%
Delta-T
°C
Wind Press
QNH
hPa
Press
MSL
hPa
Rain since
9am
mm
Dir  Spd
km/h
Gust
km/h
Spd
kts
Gust
kts
18/11:30pm 27.7 31.2 22.2 72 3.7 SW 7 9 4 5 1011.5 1011.2 34.0
18/11:00pm 27.5 30.0 22.4 73 3.4 SSW 13 24 7 13 1011.8 1011.5 34.0
18/10:30pm 25.6 28.9 22.5 83 2.1 SSW 9 15 5 8 1011.2 1010.9 34.0
18/10:00pm 25.0 28.0 21.9 83 2.1 ESE 9 15 5 8 1010.8 1010.5 34.0
18/09:30pm 24.0 26.1 20.9 83 2.0 ESE 11 15 6 8 1010.1 1009.8 34.0
18/09:00pm 23.1 25.4 20.6 86 1.6 NNE 9 11 5 6 1010.2 1009.9 34.0
18/08:30pm 23.6 24.9 20.1 81 2.3 NNW 13 20 7 11 1010.1 1009.8 34.0
18/08:04pm 25.1 22.8 20.6 76 2.9 NNW 33 56 18 30 1010.0 1009.7 33.0
18/08:02pm 25.3 22.4 20.1 73 3.4 NW 35 56 19 30 1009.8 1009.5 33.0
18/08:00pm 23.7 20.0 19.2 76 2.9 NNW 37 56 20 30 1009.7 1009.4 33.0
18/07:55pm 23.0 18.0 17.9 73 3.2 NNW 41 69 22 37 1009.7 1009.4 32.8
18/07:51pm 23.2 15.7 17.9 72 3.3 N 54 111 29 60 1009.2 1008.9 32.4
18/07:42pm 20.6 11.7 17.6 83 1.8 NNE 61 111 33 60 1009.9 1009.6 29.4
18/07:39pm 22.1 15.2 20.4 90 1.1 NE 57 82 31 44 1011.3 1011.0 23.6
18/07:34pm 22.5 15.9 19.9 85 1.7 ENE 54 82 29 44 1011.4 1011.1 14.4
18/07:30pm 23.2 18.2 20.0 82 2.1 ENE 46 72 25 39 1011.2 1010.9 8.8
18/07:28pm 24.3 20.3 19.4 74 3.1 E 39 72 21 39 1010.9 1010.6 6.4
18/07:23pm 29.8 29.4 20.1 56 6.4 ENE 22 54 12 29 1010.2 1009.9 6.0
18/07:00pm 31.1 33.8 21.3 56 6.6 NNW 9 17 5 9 1008.8 1008.5 6.0
18/06:30pm 31.2 33.8 20.5 53 7.1 NNE 7 9 4 5 1008.1 1007.8 6.0
18/06:00pm 32.1 34.5 21.6 53 7.1 NW 11 15 6 8 1007.8 1007.6 6.0
18/05:30pm 31.9 32.7 19.9 49 7.9 NNW 15 24 8 13 1008.1 1007.8 6.0
18/05:00pm 32.3 35.6 21.5 53 7.3 NNE 6 15 3 8 1006.7 1006.5 6.0
18/04:30pm 29.7 32.7 21.9 63 5.3 SSW 9 13 5 7 1006.8 1006.6 6.0
18/04:00pm 28.7 32.1 22.0 67 4.5 SE 7 13 4 7 1007.0 1006.8 6.0
18/03:30pm 28.9 28.9 18.9 54 6.5 SW 17 33 9 18 1007.1 1006.9 6.0
18/03:13pm 27.4 24.5 18.9 59 5.5 SSE 32 83 17 45 1008.4 1008.1 1.8
18/03:07pm 29.1 26.7 18.2 51 7.0 E 28 76 15 41 1008.3 1008.0 0.8
18/03:04pm 30.3 27.0 14.0 37 9.8 NE 24 76 13 41 1008.2 1007.9 0.4
18/03:00pm 36.4 36.2 18.5 35 11.8 NNE 17 24 9 13 1007.8 1007.6 0.0
18/02:30pm 38.5 39.5 17.8 29 13.6 NNE 9 15 5 8 1007.6 1007.4 0.0
18/02:00pm 38.1 38.4 18.0 30 13.2 NNW 13 22 7 12 1008.2 1007.9 0.0
18/01:30pm 37.6 38.2 18.6 33 12.6 N 13 19 7 10 1009.0 1008.7 0.0
18/01:00pm 37.3 38.2 18.3 32 12.5 ENE 11 24 6 13 1009.6 1009.3 0.0
18/12:30pm 36.6 37.6 19.5 36 11.4 NNE 13 22 7 12 1010.3 1010.0 0.0
18/12:00pm 35.9 37.2 20.2 40 10.5 NE 13 20 7 11 1010.8 1010.5 0.0
18/11:30am 34.8 37.6 20.4 43 9.7 ENE 6 13 3 7 1011.4 1011.1 0.0
18/11:00am 34.3 37.3 22.0 48 8.4 N 9 13 5 7 1011.7 1011.4 0.0
18/10:30am 32.5 35.4 21.7 53 7.3 WSW 9 15 5 8 1012.3 1012.0 0.0
18/10:00am 31.8 35.1 21.9 55 6.7 NNW 7 11 4 6 1012.5 1012.2 0.0

Other formats

Comma delimited format used in spreadsheet applications
http://www.bom.gov.au/fwo/IDD60801/IDD60801.94137.axf

JavaScript Object Notation format (JSON) in row-major order
http://www.bom.gov.au/fwo/IDD60801/IDD60801.94137.json

Data quality

Most of these data are generated automatically and are frequently updated. Quality checks on data are not normally performed. It is possible for incorrect values to appear. Refer to information at About Latest Weather Observations and please check the disclaimer before using these data.